sensor_id;sensor_type;location;lat;lon;timestamp;P1;durP1;ratioP1;P2;durP2;ratioP2
80891;SDS011;70343;51.530;5.050;2024-01-25T00:01:41;24.95;;;3.58;;
80891;SDS011;70343;51.530;5.050;2024-01-25T00:04:07;21.15;;;3.78;;
80891;SDS011;70343;51.530;5.050;2024-01-25T00:06:32;23.23;;;5.10;;
80891;SDS011;70343;51.530;5.050;2024-01-25T00:08:58;24.38;;;4.07;;
80891;SDS011;70343;51.530;5.050;2024-01-25T00:11:24;22.55;;;4.13;;
80891;SDS011;70343;51.530;5.050;2024-01-25T00:13:49;21.83;;;2.80;;
80891;SDS011;70343;51.530;5.050;2024-01-25T00:16:15;29.27;;;4.55;;
80891;SDS011;70343;51.530;5.050;2024-01-25T00:18:40;19.63;;;4.28;;
80891;SDS011;70343;51.530;5.050;2024-01-25T00:21:06;20.52;;;3.88;;
80891;SDS011;70343;51.530;5.050;2024-01-25T00:23:32;22.35;;;4.25;;
80891;SDS011;70343;51.530;5.050;2024-01-25T00:25:58;22.02;;;4.53;;
80891;SDS011;70343;51.530;5.050;2024-01-25T00:28:25;29.48;;;5.43;;
80891;SDS011;70343;51.530;5.050;2024-01-25T00:30:51;22.80;;;3.83;;
80891;SDS011;70343;51.530;5.050;2024-01-25T00:33:17;15.90;;;3.90;;
80891;SDS011;70343;51.530;5.050;2024-01-25T00:35:43;22.42;;;3.70;;
80891;SDS011;70343;51.530;5.050;2024-01-25T00:38:09;15.68;;;4.03;;
80891;SDS011;70343;51.530;5.050;2024-01-25T00:40:34;19.15;;;4.43;;
80891;SDS011;70343;51.530;5.050;2024-01-25T00:43:00;17.45;;;3.60;;
80891;SDS011;70343;51.530;5.050;2024-01-25T00:45:26;27.90;;;4.53;;
80891;SDS011;70343;51.530;5.050;2024-01-25T00:47:52;18.00;;;3.45;;
80891;SDS011;70343;51.530;5.050;2024-01-25T00:50:18;16.58;;;3.80;;
80891;SDS011;70343;51.530;5.050;2024-01-25T00:52:49;25.25;;;3.63;;
80891;SDS011;70343;51.530;5.050;2024-01-25T00:55:16;27.83;;;5.00;;
80891;SDS011;70343;51.530;5.050;2024-01-25T00:57:41;31.67;;;5.00;;
80891;SDS011;70343;51.530;5.050;2024-01-25T01:00:07;13.75;;;3.03;;
80891;SDS011;70343;51.530;5.050;2024-01-25T01:02:40;21.70;;;3.80;;
80891;SDS011;70343;51.530;5.050;2024-01-25T01:05:08;24.30;;;3.90;;
80891;SDS011;70343;51.530;5.050;2024-01-25T01:07:34;21.13;;;3.50;;
80891;SDS011;70343;51.530;5.050;2024-01-25T01:10:00;25.10;;;4.35;;
80891;SDS011;70343;51.530;5.050;2024-01-25T01:12:26;20.30;;;3.58;;
80891;SDS011;70343;51.530;5.050;2024-01-25T01:14:52;24.40;;;3.92;;
80891;SDS011;70343;51.530;5.050;2024-01-25T01:17:17;25.83;;;4.28;;
80891;SDS011;70343;51.530;5.050;2024-01-25T01:19:43;19.60;;;3.95;;
80891;SDS011;70343;51.530;5.050;2024-01-25T01:22:09;25.13;;;4.50;;
80891;SDS011;70343;51.530;5.050;2024-01-25T01:24:35;18.98;;;3.47;;
80891;SDS011;70343;51.530;5.050;2024-01-25T01:27:01;19.58;;;3.50;;
80891;SDS011;70343;51.530;5.050;2024-01-25T01:29:26;20.00;;;4.00;;
80891;SDS011;70343;51.530;5.050;2024-01-25T01:31:52;25.83;;;3.72;;
80891;SDS011;70343;51.530;5.050;2024-01-25T01:34:17;17.10;;;4.10;;
80891;SDS011;70343;51.530;5.050;2024-01-25T01:36:43;25.23;;;3.55;;
80891;SDS011;70343;51.530;5.050;2024-01-25T01:39:09;27.70;;;4.35;;
80891;SDS011;70343;51.530;5.050;2024-01-25T01:41:35;19.63;;;3.42;;
80891;SDS011;70343;51.530;5.050;2024-01-25T01:44:00;23.20;;;4.93;;
80891;SDS011;70343;51.530;5.050;2024-01-25T01:46:36;25.20;;;5.05;;
80891;SDS011;70343;51.530;5.050;2024-01-25T01:49:03;23.08;;;4.70;;
80891;SDS011;70343;51.530;5.050;2024-01-25T01:51:29;19.70;;;4.25;;
80891;SDS011;70343;51.530;5.050;2024-01-25T01:53:56;20.50;;;3.65;;
80891;SDS011;70343;51.530;5.050;2024-01-25T01:56:27;22.83;;;3.90;;
80891;SDS011;70343;51.530;5.050;2024-01-25T01:58:54;23.20;;;3.50;;
80891;SDS011;70343;51.530;5.050;2024-01-25T02:01:23;32.75;;;5.03;;
80891;SDS011;70343;51.530;5.050;2024-01-25T02:03:49;28.52;;;4.25;;
80891;SDS011;70343;51.530;5.050;2024-01-25T02:06:15;24.50;;;5.15;;
80891;SDS011;70343;51.530;5.050;2024-01-25T02:08:40;19.63;;;3.35;;
80891;SDS011;70343;51.530;5.050;2024-01-25T02:11:06;16.90;;;3.65;;
80891;SDS011;70343;51.530;5.050;2024-01-25T02:13:33;28.77;;;4.30;;
80891;SDS011;70343;51.530;5.050;2024-01-25T02:15:58;19.35;;;3.92;;
80891;SDS011;70343;51.530;5.050;2024-01-25T02:18:23;21.20;;;3.70;;
80891;SDS011;70343;51.530;5.050;2024-01-25T02:20:49;26.40;;;3.75;;
80891;SDS011;70343;51.530;5.050;2024-01-25T02:23:15;16.17;;;3.67;;
80891;SDS011;70343;51.530;5.050;2024-01-25T02:25:40;25.92;;;4.30;;
80891;SDS011;70343;51.530;5.050;2024-01-25T02:28:06;32.00;;;4.32;;
80891;SDS011;70343;51.530;5.050;2024-01-25T02:30:31;27.58;;;4.05;;
80891;SDS011;70343;51.530;5.050;2024-01-25T02:32:57;14.25;;;3.20;;
80891;SDS011;70343;51.530;5.050;2024-01-25T02:35:22;19.35;;;3.35;;
80891;SDS011;70343;51.530;5.050;2024-01-25T02:37:48;17.30;;;2.38;;
80891;SDS011;70343;51.530;5.050;2024-01-25T02:40:15;20.60;;;4.05;;
80891;SDS011;70343;51.530;5.050;2024-01-25T02:42:41;23.58;;;3.05;;
80891;SDS011;70343;51.530;5.050;2024-01-25T02:45:07;16.00;;;3.05;;
80891;SDS011;70343;51.530;5.050;2024-01-25T02:47:33;20.38;;;3.20;;
80891;SDS011;70343;51.530;5.050;2024-01-25T02:49:58;26.17;;;4.47;;
80891;SDS011;70343;51.530;5.050;2024-01-25T02:52:24;21.77;;;3.80;;
80891;SDS011;70343;51.530;5.050;2024-01-25T02:54:49;16.35;;;3.15;;
80891;SDS011;70343;51.530;5.050;2024-01-25T02:57:15;15.13;;;3.33;;
80891;SDS011;70343;51.530;5.050;2024-01-25T02:59:41;22.42;;;3.83;;
80891;SDS011;70343;51.530;5.050;2024-01-25T03:02:06;17.05;;;3.25;;
80891;SDS011;70343;51.530;5.050;2024-01-25T03:04:31;28.17;;;3.95;;
80891;SDS011;70343;51.530;5.050;2024-01-25T03:06:57;21.75;;;4.35;;
80891;SDS011;70343;51.530;5.050;2024-01-25T03:09:22;21.25;;;5.00;;
80891;SDS011;70343;51.530;5.050;2024-01-25T03:11:49;23.67;;;4.75;;
80891;SDS011;70343;51.530;5.050;2024-01-25T03:14:14;21.27;;;3.65;;
80891;SDS011;70343;51.530;5.050;2024-01-25T03:16:40;20.80;;;3.60;;
80891;SDS011;70343;51.530;5.050;2024-01-25T03:19:05;20.73;;;4.15;;
80891;SDS011;70343;51.530;5.050;2024-01-25T03:21:31;17.30;;;2.97;;
80891;SDS011;70343;51.530;5.050;2024-01-25T03:23:56;16.80;;;2.78;;
80891;SDS011;70343;51.530;5.050;2024-01-25T03:26:22;23.58;;;4.30;;
80891;SDS011;70343;51.530;5.050;2024-01-25T03:28:47;17.08;;;2.65;;
80891;SDS011;70343;51.530;5.050;2024-01-25T03:31:13;15.82;;;3.45;;
80891;SDS011;70343;51.530;5.050;2024-01-25T03:33:38;22.60;;;3.05;;
80891;SDS011;70343;51.530;5.050;2024-01-25T03:36:04;22.52;;;3.20;;
80891;SDS011;70343;51.530;5.050;2024-01-25T03:38:30;15.85;;;2.80;;
80891;SDS011;70343;51.530;5.050;2024-01-25T03:40:56;23.48;;;3.78;;
80891;SDS011;70343;51.530;5.050;2024-01-25T03:43:26;19.25;;;3.45;;
80891;SDS011;70343;51.530;5.050;2024-01-25T03:45:52;27.65;;;4.13;;
80891;SDS011;70343;51.530;5.050;2024-01-25T03:48:18;21.92;;;3.90;;
80891;SDS011;70343;51.530;5.050;2024-01-25T03:50:44;19.42;;;3.60;;
80891;SDS011;70343;51.530;5.050;2024-01-25T03:53:09;25.83;;;3.47;;
80891;SDS011;70343;51.530;5.050;2024-01-25T03:55:35;16.20;;;2.92;;
80891;SDS011;70343;51.530;5.050;2024-01-25T03:58:00;18.95;;;3.63;;
80891;SDS011;70343;51.530;5.050;2024-01-25T04:00:26;13.68;;;3.15;;
80891;SDS011;70343;51.530;5.050;2024-01-25T04:02:51;21.25;;;3.97;;
80891;SDS011;70343;51.530;5.050;2024-01-25T04:05:17;23.38;;;5.03;;
80891;SDS011;70343;51.530;5.050;2024-01-25T04:07:42;15.77;;;4.85;;
80891;SDS011;70343;51.530;5.050;2024-01-25T04:10:08;22.88;;;3.58;;
80891;SDS011;70343;51.530;5.050;2024-01-25T04:12:33;28.73;;;4.68;;
80891;SDS011;70343;51.530;5.050;2024-01-25T04:14:59;18.40;;;3.33;;
80891;SDS011;70343;51.530;5.050;2024-01-25T04:17:25;21.27;;;4.10;;
80891;SDS011;70343;51.530;5.050;2024-01-25T04:19:50;29.45;;;4.38;;
80891;SDS011;70343;51.530;5.050;2024-01-25T04:22:16;20.85;;;3.92;;
80891;SDS011;70343;51.530;5.050;2024-01-25T04:24:41;22.65;;;4.43;;
80891;SDS011;70343;51.530;5.050;2024-01-25T04:27:09;14.32;;;3.58;;
80891;SDS011;70343;51.530;5.050;2024-01-25T04:29:38;13.70;;;3.38;;
80891;SDS011;70343;51.530;5.050;2024-01-25T04:32:04;20.55;;;4.10;;
80891;SDS011;70343;51.530;5.050;2024-01-25T04:34:30;21.65;;;4.18;;
80891;SDS011;70343;51.530;5.050;2024-01-25T04:36:55;19.70;;;4.78;;
80891;SDS011;70343;51.530;5.050;2024-01-25T04:39:21;16.15;;;3.53;;
80891;SDS011;70343;51.530;5.050;2024-01-25T04:41:47;15.88;;;3.33;;
80891;SDS011;70343;51.530;5.050;2024-01-25T04:44:12;16.10;;;4.15;;
80891;SDS011;70343;51.530;5.050;2024-01-25T04:46:38;19.33;;;3.67;;
80891;SDS011;70343;51.530;5.050;2024-01-25T04:49:03;16.88;;;3.58;;
80891;SDS011;70343;51.530;5.050;2024-01-25T04:51:29;24.40;;;4.72;;
80891;SDS011;70343;51.530;5.050;2024-01-25T04:53:55;17.30;;;4.80;;
80891;SDS011;70343;51.530;5.050;2024-01-25T04:56:20;23.67;;;5.18;;
80891;SDS011;70343;51.530;5.050;2024-01-25T04:58:45;29.70;;;4.97;;
80891;SDS011;70343;51.530;5.050;2024-01-25T05:01:11;27.67;;;4.30;;
80891;SDS011;70343;51.530;5.050;2024-01-25T05:03:37;24.40;;;4.47;;
80891;SDS011;70343;51.530;5.050;2024-01-25T05:06:02;16.10;;;3.90;;
80891;SDS011;70343;51.530;5.050;2024-01-25T05:08:28;25.15;;;4.32;;
80891;SDS011;70343;51.530;5.050;2024-01-25T05:10:54;30.60;;;5.18;;
80891;SDS011;70343;51.530;5.050;2024-01-25T05:13:19;23.52;;;4.65;;
80891;SDS011;70343;51.530;5.050;2024-01-25T05:15:45;17.58;;;3.85;;
80891;SDS011;70343;51.530;5.050;2024-01-25T05:18:10;18.60;;;4.90;;
80891;SDS011;70343;51.530;5.050;2024-01-25T05:20:36;17.88;;;4.25;;
80891;SDS011;70343;51.530;5.050;2024-01-25T05:23:03;20.85;;;4.85;;
80891;SDS011;70343;51.530;5.050;2024-01-25T05:25:29;20.65;;;4.25;;
80891;SDS011;70343;51.530;5.050;2024-01-25T05:27:55;27.02;;;4.93;;
80891;SDS011;70343;51.530;5.050;2024-01-25T05:30:21;18.98;;;3.17;;
80891;SDS011;70343;51.530;5.050;2024-01-25T05:32:47;17.58;;;4.53;;
80891;SDS011;70343;51.530;5.050;2024-01-25T05:35:14;17.95;;;4.85;;
80891;SDS011;70343;51.530;5.050;2024-01-25T05:37:40;24.67;;;4.97;;
80891;SDS011;70343;51.530;5.050;2024-01-25T05:40:06;16.33;;;4.65;;
80891;SDS011;70343;51.530;5.050;2024-01-25T05:42:32;18.35;;;4.47;;
80891;SDS011;70343;51.530;5.050;2024-01-25T05:44:58;24.88;;;4.75;;
80891;SDS011;70343;51.530;5.050;2024-01-25T05:47:23;12.80;;;3.92;;
80891;SDS011;70343;51.530;5.050;2024-01-25T05:49:49;21.85;;;4.47;;
80891;SDS011;70343;51.530;5.050;2024-01-25T05:52:15;18.67;;;4.32;;
80891;SDS011;70343;51.530;5.050;2024-01-25T05:54:40;25.88;;;5.03;;
80891;SDS011;70343;51.530;5.050;2024-01-25T05:57:06;18.63;;;4.55;;
80891;SDS011;70343;51.530;5.050;2024-01-25T05:59:31;16.88;;;5.13;;
80891;SDS011;70343;51.530;5.050;2024-01-25T06:01:57;19.35;;;5.60;;
80891;SDS011;70343;51.530;5.050;2024-01-25T06:04:22;22.75;;;5.30;;
80891;SDS011;70343;51.530;5.050;2024-01-25T06:06:48;19.17;;;4.75;;
80891;SDS011;70343;51.530;5.050;2024-01-25T06:09:13;16.25;;;4.25;;
80891;SDS011;70343;51.530;5.050;2024-01-25T06:11:40;20.52;;;4.35;;
80891;SDS011;70343;51.530;5.050;2024-01-25T06:14:06;20.20;;;4.60;;
80891;SDS011;70343;51.530;5.050;2024-01-25T06:16:31;21.52;;;5.38;;
80891;SDS011;70343;51.530;5.050;2024-01-25T06:18:57;16.58;;;4.80;;
80891;SDS011;70343;51.530;5.050;2024-01-25T06:21:24;22.98;;;5.20;;
80891;SDS011;70343;51.530;5.050;2024-01-25T06:23:50;25.20;;;6.20;;
80891;SDS011;70343;51.530;5.050;2024-01-25T06:26:16;11.27;;;5.15;;
80891;SDS011;70343;51.530;5.050;2024-01-25T06:28:41;21.48;;;4.97;;
80891;SDS011;70343;51.530;5.050;2024-01-25T06:31:07;20.33;;;5.00;;
80891;SDS011;70343;51.530;5.050;2024-01-25T06:33:32;15.40;;;4.45;;
80891;SDS011;70343;51.530;5.050;2024-01-25T06:35:58;27.05;;;6.15;;
80891;SDS011;70343;51.530;5.050;2024-01-25T06:38:23;19.45;;;4.47;;
80891;SDS011;70343;51.530;5.050;2024-01-25T06:40:49;21.35;;;5.35;;
80891;SDS011;70343;51.530;5.050;2024-01-25T06:43:14;22.88;;;5.15;;
80891;SDS011;70343;51.530;5.050;2024-01-25T06:45:40;18.45;;;4.88;;
80891;SDS011;70343;51.530;5.050;2024-01-25T06:48:06;17.83;;;4.32;;
80891;SDS011;70343;51.530;5.050;2024-01-25T06:50:33;14.77;;;4.55;;
80891;SDS011;70343;51.530;5.050;2024-01-25T06:52:59;15.20;;;4.65;;
80891;SDS011;70343;51.530;5.050;2024-01-25T06:55:25;17.83;;;4.13;;
80891;SDS011;70343;51.530;5.050;2024-01-25T06:57:50;17.38;;;3.83;;
80891;SDS011;70343;51.530;5.050;2024-01-25T07:00:16;22.27;;;4.43;;
80891;SDS011;70343;51.530;5.050;2024-01-25T07:02:41;19.35;;;4.93;;
80891;SDS011;70343;51.530;5.050;2024-01-25T07:05:07;15.18;;;3.97;;
80891;SDS011;70343;51.530;5.050;2024-01-25T07:07:33;23.05;;;5.10;;
80891;SDS011;70343;51.530;5.050;2024-01-25T07:09:59;16.95;;;5.28;;
80891;SDS011;70343;51.530;5.050;2024-01-25T07:12:25;27.80;;;5.43;;
80891;SDS011;70343;51.530;5.050;2024-01-25T07:14:51;27.50;;;6.15;;
80891;SDS011;70343;51.530;5.050;2024-01-25T07:17:16;22.63;;;6.32;;
80891;SDS011;70343;51.530;5.050;2024-01-25T07:19:42;19.60;;;5.50;;
80891;SDS011;70343;51.530;5.050;2024-01-25T07:22:07;18.65;;;5.20;;
80891;SDS011;70343;51.530;5.050;2024-01-25T07:24:33;19.58;;;5.07;;
80891;SDS011;70343;51.530;5.050;2024-01-25T07:26:58;22.25;;;6.30;;
80891;SDS011;70343;51.530;5.050;2024-01-25T07:29:24;27.02;;;6.68;;
80891;SDS011;70343;51.530;5.050;2024-01-25T07:31:49;11.50;;;4.55;;
80891;SDS011;70343;51.530;5.050;2024-01-25T07:34:15;28.70;;;6.20;;
80891;SDS011;70343;51.530;5.050;2024-01-25T07:36:40;20.80;;;4.72;;
80891;SDS011;70343;51.530;5.050;2024-01-25T07:39:06;24.27;;;5.57;;
80891;SDS011;70343;51.530;5.050;2024-01-25T07:41:33;18.48;;;5.50;;
80891;SDS011;70343;51.530;5.050;2024-01-25T07:43:59;18.50;;;5.85;;
80891;SDS011;70343;51.530;5.050;2024-01-25T07:46:24;25.02;;;6.75;;
80891;SDS011;70343;51.530;5.050;2024-01-25T07:48:50;26.02;;;6.07;;
80891;SDS011;70343;51.530;5.050;2024-01-25T07:51:15;23.42;;;5.88;;
80891;SDS011;70343;51.530;5.050;2024-01-25T07:53:41;21.35;;;5.18;;
80891;SDS011;70343;51.530;5.050;2024-01-25T07:56:07;20.05;;;6.03;;
80891;SDS011;70343;51.530;5.050;2024-01-25T07:58:34;21.60;;;5.53;;
80891;SDS011;70343;51.530;5.050;2024-01-25T08:01:02;22.42;;;6.07;;
80891;SDS011;70343;51.530;5.050;2024-01-25T08:03:29;20.30;;;6.38;;
80891;SDS011;70343;51.530;5.050;2024-01-25T08:05:54;26.50;;;5.63;;
80891;SDS011;70343;51.530;5.050;2024-01-25T08:08:20;17.42;;;5.82;;
80891;SDS011;70343;51.530;5.050;2024-01-25T08:10:45;18.17;;;6.20;;
80891;SDS011;70343;51.530;5.050;2024-01-25T08:13:12;16.48;;;5.72;;
80891;SDS011;70343;51.530;5.050;2024-01-25T08:15:38;22.55;;;6.32;;
80891;SDS011;70343;51.530;5.050;2024-01-25T08:18:03;20.15;;;6.15;;
80891;SDS011;70343;51.530;5.050;2024-01-25T08:20:29;28.35;;;6.05;;
80891;SDS011;70343;51.530;5.050;2024-01-25T08:22:55;23.55;;;6.78;;
80891;SDS011;70343;51.530;5.050;2024-01-25T08:25:20;19.75;;;6.05;;
80891;SDS011;70343;51.530;5.050;2024-01-25T08:27:46;26.50;;;5.82;;
80891;SDS011;70343;51.530;5.050;2024-01-25T08:30:11;23.13;;;6.03;;
80891;SDS011;70343;51.530;5.050;2024-01-25T08:32:37;22.98;;;6.07;;
80891;SDS011;70343;51.530;5.050;2024-01-25T08:35:03;20.15;;;5.85;;
80891;SDS011;70343;51.530;5.050;2024-01-25T08:37:29;19.75;;;6.40;;
80891;SDS011;70343;51.530;5.050;2024-01-25T08:39:54;28.00;;;7.68;;
80891;SDS011;70343;51.530;5.050;2024-01-25T08:42:20;28.33;;;6.75;;
80891;SDS011;70343;51.530;5.050;2024-01-25T08:44:46;24.02;;;6.72;;
80891;SDS011;70343;51.530;5.050;2024-01-25T08:47:15;19.42;;;6.80;;
80891;SDS011;70343;51.530;5.050;2024-01-25T08:49:42;20.75;;;6.95;;
80891;SDS011;70343;51.530;5.050;2024-01-25T08:52:07;24.02;;;6.18;;
80891;SDS011;70343;51.530;5.050;2024-01-25T08:54:33;29.15;;;7.13;;
80891;SDS011;70343;51.530;5.050;2024-01-25T08:56:59;25.98;;;7.13;;
80891;SDS011;70343;51.530;5.050;2024-01-25T08:59:25;24.30;;;7.05;;
80891;SDS011;70343;51.530;5.050;2024-01-25T09:01:51;30.25;;;9.35;;
80891;SDS011;70343;51.530;5.050;2024-01-25T09:04:17;28.75;;;8.25;;
80891;SDS011;70343;51.530;5.050;2024-01-25T09:06:43;35.72;;;9.82;;
80891;SDS011;70343;51.530;5.050;2024-01-25T09:09:09;38.05;;;11.20;;
80891;SDS011;70343;51.530;5.050;2024-01-25T09:11:36;25.27;;;7.80;;
80891;SDS011;70343;51.530;5.050;2024-01-25T09:14:01;31.10;;;9.30;;
80891;SDS011;70343;51.530;5.050;2024-01-25T09:16:27;29.13;;;10.10;;
80891;SDS011;70343;51.530;5.050;2024-01-25T09:18:52;26.45;;;9.82;;
80891;SDS011;70343;51.530;5.050;2024-01-25T09:21:18;22.92;;;7.35;;
80891;SDS011;70343;51.530;5.050;2024-01-25T09:23:43;34.10;;;9.23;;
80891;SDS011;70343;51.530;5.050;2024-01-25T09:26:09;37.88;;;10.18;;
80891;SDS011;70343;51.530;5.050;2024-01-25T09:28:35;28.02;;;9.50;;
80891;SDS011;70343;51.530;5.050;2024-01-25T09:31:00;36.70;;;10.93;;
80891;SDS011;70343;51.530;5.050;2024-01-25T09:33:26;31.23;;;11.25;;
80891;SDS011;70343;51.530;5.050;2024-01-25T09:35:51;32.22;;;11.45;;
80891;SDS011;70343;51.530;5.050;2024-01-25T09:38:16;35.38;;;10.73;;
80891;SDS011;70343;51.530;5.050;2024-01-25T09:40:42;28.15;;;9.43;;
80891;SDS011;70343;51.530;5.050;2024-01-25T09:43:07;29.35;;;10.32;;
80891;SDS011;70343;51.530;5.050;2024-01-25T09:45:33;34.00;;;10.60;;
80891;SDS011;70343;51.530;5.050;2024-01-25T09:48:00;41.78;;;11.13;;
80891;SDS011;70343;51.530;5.050;2024-01-25T09:50:29;38.00;;;12.45;;
80891;SDS011;70343;51.530;5.050;2024-01-25T09:52:59;30.63;;;11.15;;
80891;SDS011;70343;51.530;5.050;2024-01-25T09:55:25;34.97;;;12.02;;
80891;SDS011;70343;51.530;5.050;2024-01-25T09:57:55;33.15;;;10.50;;
80891;SDS011;70343;51.530;5.050;2024-01-25T10:00:24;36.13;;;12.07;;
80891;SDS011;70343;51.530;5.050;2024-01-25T10:02:49;29.25;;;10.27;;
80891;SDS011;70343;51.530;5.050;2024-01-25T10:05:16;30.70;;;10.80;;
80891;SDS011;70343;51.530;5.050;2024-01-25T10:07:42;29.58;;;10.27;;
80891;SDS011;70343;51.530;5.050;2024-01-25T10:10:09;33.00;;;10.48;;
80891;SDS011;70343;51.530;5.050;2024-01-25T10:12:36;37.53;;;10.75;;
80891;SDS011;70343;51.530;5.050;2024-01-25T10:15:03;29.17;;;10.25;;
80891;SDS011;70343;51.530;5.050;2024-01-25T10:17:30;31.33;;;9.60;;
80891;SDS011;70343;51.530;5.050;2024-01-25T10:19:56;32.33;;;8.95;;
80891;SDS011;70343;51.530;5.050;2024-01-25T10:22:21;36.83;;;9.50;;
80891;SDS011;70343;51.530;5.050;2024-01-25T10:24:48;32.30;;;9.95;;
80891;SDS011;70343;51.530;5.050;2024-01-25T10:27:15;31.38;;;10.35;;
80891;SDS011;70343;51.530;5.050;2024-01-25T10:29:42;25.48;;;9.40;;
80891;SDS011;70343;51.530;5.050;2024-01-25T10:32:08;28.17;;;8.55;;
80891;SDS011;70343;51.530;5.050;2024-01-25T10:34:35;37.92;;;10.32;;
80891;SDS011;70343;51.530;5.050;2024-01-25T10:37:02;23.35;;;8.50;;
80891;SDS011;70343;51.530;5.050;2024-01-25T10:39:30;23.75;;;9.45;;
80891;SDS011;70343;51.530;5.050;2024-01-25T10:41:56;26.15;;;8.48;;
80891;SDS011;70343;51.530;5.050;2024-01-25T10:44:24;28.10;;;8.13;;
80891;SDS011;70343;51.530;5.050;2024-01-25T10:46:50;26.27;;;8.63;;
80891;SDS011;70343;51.530;5.050;2024-01-25T10:49:16;26.65;;;8.45;;
80891;SDS011;70343;51.530;5.050;2024-01-25T10:51:44;18.90;;;6.90;;
80891;SDS011;70343;51.530;5.050;2024-01-25T10:54:14;19.70;;;7.45;;
80891;SDS011;70343;51.530;5.050;2024-01-25T10:56:43;32.00;;;9.90;;
80891;SDS011;70343;51.530;5.050;2024-01-25T10:59:11;23.30;;;7.28;;
80891;SDS011;70343;51.530;5.050;2024-01-25T11:01:37;24.65;;;8.40;;
80891;SDS011;70343;51.530;5.050;2024-01-25T11:04:02;23.17;;;7.35;;
80891;SDS011;70343;51.530;5.050;2024-01-25T11:06:36;22.50;;;7.55;;
80891;SDS011;70343;51.530;5.050;2024-01-25T11:09:05;23.65;;;7.55;;
80891;SDS011;70343;51.530;5.050;2024-01-25T11:11:32;27.95;;;8.23;;
80891;SDS011;70343;51.530;5.050;2024-01-25T11:13:58;31.83;;;8.88;;
80891;SDS011;70343;51.530;5.050;2024-01-25T11:16:31;33.50;;;9.23;;
80891;SDS011;70343;51.530;5.050;2024-01-25T11:18:59;28.05;;;7.93;;
80891;SDS011;70343;51.530;5.050;2024-01-25T11:21:39;29.05;;;8.50;;
80891;SDS011;70343;51.530;5.050;2024-01-25T11:24:11;34.45;;;7.40;;
80891;SDS011;70343;51.530;5.050;2024-01-25T11:26:38;23.33;;;7.75;;
80891;SDS011;70343;51.530;5.050;2024-01-25T11:29:04;25.33;;;8.43;;
80891;SDS011;70343;51.530;5.050;2024-01-25T11:31:30;26.05;;;7.25;;
80891;SDS011;70343;51.530;5.050;2024-01-25T11:33:57;25.85;;;7.57;;
80891;SDS011;70343;51.530;5.050;2024-01-25T11:36:24;29.15;;;8.40;;
80891;SDS011;70343;51.530;5.050;2024-01-25T11:38:50;25.20;;;6.95;;
80891;SDS011;70343;51.530;5.050;2024-01-25T11:41:15;23.85;;;7.07;;
80891;SDS011;70343;51.530;5.050;2024-01-25T11:43:41;21.17;;;6.65;;
80891;SDS011;70343;51.530;5.050;2024-01-25T11:46:08;34.72;;;7.22;;
80891;SDS011;70343;51.530;5.050;2024-01-25T11:48:33;25.25;;;6.78;;
80891;SDS011;70343;51.530;5.050;2024-01-25T11:51:03;17.98;;;6.50;;
80891;SDS011;70343;51.530;5.050;2024-01-25T11:53:28;21.65;;;5.80;;
80891;SDS011;70343;51.530;5.050;2024-01-25T11:55:54;24.20;;;6.47;;
80891;SDS011;70343;51.530;5.050;2024-01-25T11:58:21;22.35;;;6.82;;
80891;SDS011;70343;51.530;5.050;2024-01-25T12:00:47;31.50;;;6.90;;
80891;SDS011;70343;51.530;5.050;2024-01-25T12:03:14;23.48;;;7.13;;
80891;SDS011;70343;51.530;5.050;2024-01-25T12:05:41;24.05;;;7.03;;
80891;SDS011;70343;51.530;5.050;2024-01-25T12:08:13;31.25;;;8.30;;
80891;SDS011;70343;51.530;5.050;2024-01-25T12:10:39;28.52;;;7.32;;
80891;SDS011;70343;51.530;5.050;2024-01-25T12:13:07;31.20;;;8.27;;
80891;SDS011;70343;51.530;5.050;2024-01-25T12:15:34;24.88;;;8.40;;
80891;SDS011;70343;51.530;5.050;2024-01-25T12:18:00;23.77;;;7.68;;
80891;SDS011;70343;51.530;5.050;2024-01-25T12:20:27;21.98;;;6.60;;
80891;SDS011;70343;51.530;5.050;2024-01-25T12:22:53;34.00;;;7.28;;
80891;SDS011;70343;51.530;5.050;2024-01-25T12:25:19;36.70;;;9.07;;
80891;SDS011;70343;51.530;5.050;2024-01-25T12:27:45;37.95;;;7.75;;
80891;SDS011;70343;51.530;5.050;2024-01-25T12:30:14;25.83;;;7.45;;
80891;SDS011;70343;51.530;5.050;2024-01-25T12:32:40;21.40;;;7.45;;
80891;SDS011;70343;51.530;5.050;2024-01-25T12:35:06;35.35;;;8.07;;
80891;SDS011;70343;51.530;5.050;2024-01-25T12:37:33;36.85;;;10.05;;
80891;SDS011;70343;51.530;5.050;2024-01-25T12:39:58;27.95;;;7.90;;
80891;SDS011;70343;51.530;5.050;2024-01-25T12:42:24;23.10;;;6.95;;
80891;SDS011;70343;51.530;5.050;2024-01-25T12:44:51;25.15;;;6.97;;
80891;SDS011;70343;51.530;5.050;2024-01-25T12:47:17;31.95;;;8.43;;
80891;SDS011;70343;51.530;5.050;2024-01-25T12:49:43;36.40;;;7.45;;
80891;SDS011;70343;51.530;5.050;2024-01-25T12:52:12;30.85;;;8.93;;
80891;SDS011;70343;51.530;5.050;2024-01-25T12:54:39;23.77;;;7.65;;
80891;SDS011;70343;51.530;5.050;2024-01-25T12:57:05;28.75;;;7.60;;
80891;SDS011;70343;51.530;5.050;2024-01-25T12:59:34;28.00;;;8.18;;
80891;SDS011;70343;51.530;5.050;2024-01-25T13:02:01;31.17;;;7.88;;
80891;SDS011;70343;51.530;5.050;2024-01-25T13:04:27;29.33;;;7.95;;
80891;SDS011;70343;51.530;5.050;2024-01-25T13:06:53;31.35;;;9.15;;
80891;SDS011;70343;51.530;5.050;2024-01-25T13:09:21;27.20;;;10.27;;
80891;SDS011;70343;51.530;5.050;2024-01-25T13:11:47;23.52;;;8.15;;
80891;SDS011;70343;51.530;5.050;2024-01-25T13:14:13;27.20;;;8.93;;
80891;SDS011;70343;51.530;5.050;2024-01-25T13:16:38;23.65;;;9.52;;
80891;SDS011;70343;51.530;5.050;2024-01-25T13:19:04;27.23;;;8.95;;
80891;SDS011;70343;51.530;5.050;2024-01-25T13:21:30;25.15;;;9.75;;
80891;SDS011;70343;51.530;5.050;2024-01-25T13:23:56;27.65;;;9.60;;
80891;SDS011;70343;51.530;5.050;2024-01-25T13:26:21;22.67;;;9.30;;
80891;SDS011;70343;51.530;5.050;2024-01-25T13:28:47;25.27;;;9.45;;
80891;SDS011;70343;51.530;5.050;2024-01-25T13:31:12;30.90;;;10.32;;
80891;SDS011;70343;51.530;5.050;2024-01-25T13:33:38;34.90;;;10.43;;
80891;SDS011;70343;51.530;5.050;2024-01-25T13:36:03;27.48;;;10.00;;
80891;SDS011;70343;51.530;5.050;2024-01-25T13:38:34;26.73;;;12.23;;
80891;SDS011;70343;51.530;5.050;2024-01-25T13:41:00;30.85;;;11.23;;
80891;SDS011;70343;51.530;5.050;2024-01-25T13:43:25;32.53;;;11.20;;
80891;SDS011;70343;51.530;5.050;2024-01-25T13:45:51;32.20;;;11.05;;
80891;SDS011;70343;51.530;5.050;2024-01-25T13:48:16;34.22;;;11.68;;
80891;SDS011;70343;51.530;5.050;2024-01-25T13:50:44;32.50;;;11.00;;
80891;SDS011;70343;51.530;5.050;2024-01-25T13:53:09;39.15;;;12.20;;
80891;SDS011;70343;51.530;5.050;2024-01-25T13:55:35;41.95;;;14.43;;
80891;SDS011;70343;51.530;5.050;2024-01-25T13:58:01;41.67;;;13.52;;
80891;SDS011;70343;51.530;5.050;2024-01-25T14:00:26;32.28;;;13.38;;
80891;SDS011;70343;51.530;5.050;2024-01-25T14:02:52;31.38;;;13.93;;
80891;SDS011;70343;51.530;5.050;2024-01-25T14:05:18;45.13;;;14.18;;
80891;SDS011;70343;51.530;5.050;2024-01-25T14:07:44;41.60;;;13.30;;
80891;SDS011;70343;51.530;5.050;2024-01-25T14:10:09;37.25;;;13.15;;
80891;SDS011;70343;51.530;5.050;2024-01-25T14:12:35;39.15;;;13.35;;
80891;SDS011;70343;51.530;5.050;2024-01-25T14:15:00;34.00;;;11.60;;
80891;SDS011;70343;51.530;5.050;2024-01-25T14:17:26;33.70;;;12.10;;
80891;SDS011;70343;51.530;5.050;2024-01-25T14:19:52;35.20;;;11.73;;
80891;SDS011;70343;51.530;5.050;2024-01-25T14:22:18;35.35;;;12.63;;
80891;SDS011;70343;51.530;5.050;2024-01-25T14:24:44;34.88;;;12.52;;
80891;SDS011;70343;51.530;5.050;2024-01-25T14:27:11;46.88;;;14.75;;